sensor_id;sensor_type;location;lat;lon;timestamp;temperature;humidity
23089;DHT22;11713;48.506;8.966;2023-02-28T00:00:22;-0.50;99.90
23089;DHT22;11713;48.506;8.966;2023-02-28T00:02:48;-0.50;99.90
23089;DHT22;11713;48.506;8.966;2023-02-28T00:05:18;-0.50;99.90
23089;DHT22;11713;48.506;8.966;2023-02-28T00:07:44;-0.50;99.90
23089;DHT22;11713;48.506;8.966;2023-02-28T00:10:12;-0.50;99.90
23089;DHT22;11713;48.506;8.966;2023-02-28T00:12:39;-0.50;99.90
23089;DHT22;11713;48.506;8.966;2023-02-28T00:15:06;-0.50;99.90
23089;DHT22;11713;48.506;8.966;2023-02-28T00:17:32;-0.50;99.90
23089;DHT22;11713;48.506;8.966;2023-02-28T00:19:58;-0.50;99.90
23089;DHT22;11713;48.506;8.966;2023-02-28T00:22:36;-0.50;99.90
23089;DHT22;11713;48.506;8.966;2023-02-28T00:25:03;-0.50;99.90
23089;DHT22;11713;48.506;8.966;2023-02-28T00:27:30;-0.60;99.90
23089;DHT22;11713;48.506;8.966;2023-02-28T00:29:55;-0.60;99.90
23089;DHT22;11713;48.506;8.966;2023-02-28T00:32:21;-0.60;99.90
23089;DHT22;11713;48.506;8.966;2023-02-28T00:34:47;-0.70;99.90
23089;DHT22;11713;48.506;8.966;2023-02-28T00:37:14;-0.80;99.90
23089;DHT22;11713;48.506;8.966;2023-02-28T00:39:40;-0.70;99.90
23089;DHT22;11713;48.506;8.966;2023-02-28T00:42:07;-0.70;99.90
23089;DHT22;11713;48.506;8.966;2023-02-28T00:44:33;-0.80;99.90
23089;DHT22;11713;48.506;8.966;2023-02-28T00:47:00;-0.80;99.90
23089;DHT22;11713;48.506;8.966;2023-02-28T00:49:27;-0.80;99.90
23089;DHT22;11713;48.506;8.966;2023-02-28T00:51:54;-0.70;99.90
23089;DHT22;11713;48.506;8.966;2023-02-28T00:54:20;-0.80;99.90
23089;DHT22;11713;48.506;8.966;2023-02-28T00:56:47;-0.80;99.90
23089;DHT22;11713;48.506;8.966;2023-02-28T00:59:13;-0.80;99.90
23089;DHT22;11713;48.506;8.966;2023-02-28T01:01:39;-0.80;99.90
23089;DHT22;11713;48.506;8.966;2023-02-28T01:04:05;-0.80;99.90
23089;DHT22;11713;48.506;8.966;2023-02-28T01:06:31;-0.80;99.90
23089;DHT22;11713;48.506;8.966;2023-02-28T01:08:58;-0.80;99.90
23089;DHT22;11713;48.506;8.966;2023-02-28T01:11:24;-0.80;99.90
23089;DHT22;11713;48.506;8.966;2023-02-28T01:13:49;-0.80;99.90
23089;DHT22;11713;48.506;8.966;2023-02-28T01:16:15;-0.90;99.90
23089;DHT22;11713;48.506;8.966;2023-02-28T01:18:41;-0.90;99.90
23089;DHT22;11713;48.506;8.966;2023-02-28T01:21:13;-0.90;99.90
23089;DHT22;11713;48.506;8.966;2023-02-28T01:23:39;-1.00;99.90
23089;DHT22;11713;48.506;8.966;2023-02-28T01:26:13;-1.00;99.90
23089;DHT22;11713;48.506;8.966;2023-02-28T01:28:40;-1.00;99.90
23089;DHT22;11713;48.506;8.966;2023-02-28T01:31:06;-1.00;99.90
23089;DHT22;11713;48.506;8.966;2023-02-28T01:33:32;-1.00;99.90
23089;DHT22;11713;48.506;8.966;2023-02-28T01:36:09;-0.90;99.90
23089;DHT22;11713;48.506;8.966;2023-02-28T01:38:36;-0.90;99.90
23089;DHT22;11713;48.506;8.966;2023-02-28T01:41:02;-0.90;99.90
23089;DHT22;11713;48.506;8.966;2023-02-28T01:46:08;-0.90;99.90
23089;DHT22;11713;48.506;8.966;2023-02-28T01:48:38;-0.90;99.90
23089;DHT22;11713;48.506;8.966;2023-02-28T01:51:14;-1.00;99.90
23089;DHT22;11713;48.506;8.966;2023-02-28T01:53:46;-1.00;99.90
23089;DHT22;11713;48.506;8.966;2023-02-28T01:56:17;-1.00;99.90
23089;DHT22;11713;48.506;8.966;2023-02-28T01:58:52;-1.00;99.90
23089;DHT22;11713;48.506;8.966;2023-02-28T02:01:20;-1.00;99.90
23089;DHT22;11713;48.506;8.966;2023-02-28T02:04:01;-1.10;99.90
23089;DHT22;11713;48.506;8.966;2023-02-28T02:06:34;-1.10;99.90
23089;DHT22;11713;48.506;8.966;2023-02-28T02:09:01;-1.10;99.90
23089;DHT22;11713;48.506;8.966;2023-02-28T02:11:28;-1.10;99.90
23089;DHT22;11713;48.506;8.966;2023-02-28T02:14:11;-1.10;99.90
23089;DHT22;11713;48.506;8.966;2023-02-28T02:36:18;-1.20;99.90
23089;DHT22;11713;48.506;8.966;2023-02-28T02:39:05;-1.20;99.90
23089;DHT22;11713;48.506;8.966;2023-02-28T02:41:45;-1.30;99.90
23089;DHT22;11713;48.506;8.966;2023-02-28T02:44:22;-1.30;99.90
23089;DHT22;11713;48.506;8.966;2023-02-28T02:46:53;-1.30;99.90
23089;DHT22;11713;48.506;8.966;2023-02-28T02:49:24;-1.20;99.90
23089;DHT22;11713;48.506;8.966;2023-02-28T02:51:52;-1.20;99.90
23089;DHT22;11713;48.506;8.966;2023-02-28T02:54:24;-1.20;99.90
23089;DHT22;11713;48.506;8.966;2023-02-28T02:56:58;-1.20;99.90
23089;DHT22;11713;48.506;8.966;2023-02-28T02:59:25;-1.20;99.90
23089;DHT22;11713;48.506;8.966;2023-02-28T03:01:58;-1.20;99.90
23089;DHT22;11713;48.506;8.966;2023-02-28T03:04:30;-1.30;99.90
23089;DHT22;11713;48.506;8.966;2023-02-28T03:06:58;-1.30;99.90
23089;DHT22;11713;48.506;8.966;2023-02-28T03:09:25;-1.20;99.90
23089;DHT22;11713;48.506;8.966;2023-02-28T03:11:52;-1.20;99.90
23089;DHT22;11713;48.506;8.966;2023-02-28T03:22:49;-1.20;99.90
23089;DHT22;11713;48.506;8.966;2023-02-28T03:30:45;-1.10;99.90
23089;DHT22;11713;48.506;8.966;2023-02-28T03:33:18;-1.10;99.90
23089;DHT22;11713;48.506;8.966;2023-02-28T03:35:52;-1.10;99.90
23089;DHT22;11713;48.506;8.966;2023-02-28T03:38:19;-1.10;99.90
23089;DHT22;11713;48.506;8.966;2023-02-28T03:40:50;-1.10;99.90
23089;DHT22;11713;48.506;8.966;2023-02-28T03:43:25;-1.10;99.90
23089;DHT22;11713;48.506;8.966;2023-02-28T03:45:55;-1.10;99.90
23089;DHT22;11713;48.506;8.966;2023-02-28T03:48:33;-1.00;99.90
23089;DHT22;11713;48.506;8.966;2023-02-28T03:51:01;-1.00;99.90
23089;DHT22;11713;48.506;8.966;2023-02-28T03:53:34;-1.10;99.90
23089;DHT22;11713;48.506;8.966;2023-02-28T03:56:07;-1.10;99.90
23089;DHT22;11713;48.506;8.966;2023-02-28T03:58:55;-1.00;99.90
23089;DHT22;11713;48.506;8.966;2023-02-28T04:03:51;-1.00;99.90
23089;DHT22;11713;48.506;8.966;2023-02-28T04:06:22;-1.00;99.90
23089;DHT22;11713;48.506;8.966;2023-02-28T04:08:48;-1.00;99.90
23089;DHT22;11713;48.506;8.966;2023-02-28T04:13:40;-1.00;99.90
23089;DHT22;11713;48.506;8.966;2023-02-28T04:16:09;-1.10;99.90
23089;DHT22;11713;48.506;8.966;2023-02-28T04:18:42;-1.10;99.90
23089;DHT22;11713;48.506;8.966;2023-02-28T04:21:09;-1.10;99.90
23089;DHT22;11713;48.506;8.966;2023-02-28T04:23:35;-1.10;99.90
23089;DHT22;11713;48.506;8.966;2023-02-28T04:26:01;-1.00;99.90
23089;DHT22;11713;48.506;8.966;2023-02-28T04:28:27;-1.00;99.90
23089;DHT22;11713;48.506;8.966;2023-02-28T04:31:01;-1.00;99.90
23089;DHT22;11713;48.506;8.966;2023-02-28T04:33:27;-1.00;99.90
23089;DHT22;11713;48.506;8.966;2023-02-28T04:36:04;-0.90;99.90
23089;DHT22;11713;48.506;8.966;2023-02-28T04:38:36;-1.00;99.90
23089;DHT22;11713;48.506;8.966;2023-02-28T04:41:03;-1.00;99.90
23089;DHT22;11713;48.506;8.966;2023-02-28T04:43:30;-1.00;99.90
23089;DHT22;11713;48.506;8.966;2023-02-28T04:45:57;-1.00;99.90
23089;DHT22;11713;48.506;8.966;2023-02-28T04:48:25;-0.90;99.90
23089;DHT22;11713;48.506;8.966;2023-02-28T04:51:04;-0.90;99.90
23089;DHT22;11713;48.506;8.966;2023-02-28T04:53:39;-0.90;99.90
23089;DHT22;11713;48.506;8.966;2023-02-28T04:56:07;-1.00;99.90
23089;DHT22;11713;48.506;8.966;2023-02-28T04:58:34;-1.00;99.90
23089;DHT22;11713;48.506;8.966;2023-02-28T05:01:05;-1.00;99.90
23089;DHT22;11713;48.506;8.966;2023-02-28T05:03:41;-1.00;99.90
23089;DHT22;11713;48.506;8.966;2023-02-28T05:06:08;-0.90;99.90
23089;DHT22;11713;48.506;8.966;2023-02-28T05:08:34;-0.90;99.90
23089;DHT22;11713;48.506;8.966;2023-02-28T05:11:00;-0.90;99.90
23089;DHT22;11713;48.506;8.966;2023-02-28T05:13:27;-0.90;99.90
23089;DHT22;11713;48.506;8.966;2023-02-28T05:15:53;-1.00;99.90
23089;DHT22;11713;48.506;8.966;2023-02-28T05:18:19;-1.00;99.90
23089;DHT22;11713;48.506;8.966;2023-02-28T05:20:45;-1.00;99.90
23089;DHT22;11713;48.506;8.966;2023-02-28T05:23:12;-1.00;99.90
23089;DHT22;11713;48.506;8.966;2023-02-28T05:25:39;-1.00;99.90
23089;DHT22;11713;48.506;8.966;2023-02-28T05:28:05;-0.90;99.90
23089;DHT22;11713;48.506;8.966;2023-02-28T05:30:31;-1.00;99.90
23089;DHT22;11713;48.506;8.966;2023-02-28T05:32:57;-0.90;99.90
23089;DHT22;11713;48.506;8.966;2023-02-28T05:35:24;-1.00;99.90
23089;DHT22;11713;48.506;8.966;2023-02-28T05:37:50;-0.90;99.90
23089;DHT22;11713;48.506;8.966;2023-02-28T05:40:16;-0.90;99.90
23089;DHT22;11713;48.506;8.966;2023-02-28T05:42:42;-0.90;99.90
23089;DHT22;11713;48.506;8.966;2023-02-28T05:45:09;-0.90;99.90
23089;DHT22;11713;48.506;8.966;2023-02-28T05:47:36;-0.90;99.90
23089;DHT22;11713;48.506;8.966;2023-02-28T05:50:02;-0.90;99.90
23089;DHT22;11713;48.506;8.966;2023-02-28T05:52:28;-0.90;99.90
23089;DHT22;11713;48.506;8.966;2023-02-28T05:54:56;-0.90;99.90
23089;DHT22;11713;48.506;8.966;2023-02-28T05:57:22;-0.90;99.90
23089;DHT22;11713;48.506;8.966;2023-02-28T05:59:48;-0.90;99.90
23089;DHT22;11713;48.506;8.966;2023-02-28T06:02:15;-0.80;99.90
23089;DHT22;11713;48.506;8.966;2023-02-28T06:04:42;-0.90;99.90
23089;DHT22;11713;48.506;8.966;2023-02-28T06:07:08;-0.80;99.90
23089;DHT22;11713;48.506;8.966;2023-02-28T06:09:35;-0.90;99.90
23089;DHT22;11713;48.506;8.966;2023-02-28T06:12:02;-0.90;99.90
23089;DHT22;11713;48.506;8.966;2023-02-28T06:14:31;-0.90;99.90
23089;DHT22;11713;48.506;8.966;2023-02-28T06:16:59;-0.80;99.90
23089;DHT22;11713;48.506;8.966;2023-02-28T06:19:25;-0.90;99.90
23089;DHT22;11713;48.506;8.966;2023-02-28T06:21:52;-0.90;99.90
23089;DHT22;11713;48.506;8.966;2023-02-28T06:24:22;-0.90;99.90
23089;DHT22;11713;48.506;8.966;2023-02-28T06:26:49;-0.90;99.90
23089;DHT22;11713;48.506;8.966;2023-02-28T06:29:15;-0.90;99.90
23089;DHT22;11713;48.506;8.966;2023-02-28T06:31:43;-0.80;99.90
23089;DHT22;11713;48.506;8.966;2023-02-28T06:34:13;-0.80;99.90
23089;DHT22;11713;48.506;8.966;2023-02-28T06:36:40;-0.90;99.90
23089;DHT22;11713;48.506;8.966;2023-02-28T06:39:06;-0.80;99.90
23089;DHT22;11713;48.506;8.966;2023-02-28T06:41:33;-0.80;99.90
23089;DHT22;11713;48.506;8.966;2023-02-28T06:44:13;-0.90;99.90
23089;DHT22;11713;48.506;8.966;2023-02-28T06:46:43;-0.80;99.90
23089;DHT22;11713;48.506;8.966;2023-02-28T06:49:10;-0.80;99.90
23089;DHT22;11713;48.506;8.966;2023-02-28T06:51:38;-0.80;99.90
23089;DHT22;11713;48.506;8.966;2023-02-28T06:54:04;-0.80;99.90
23089;DHT22;11713;48.506;8.966;2023-02-28T06:56:30;-0.70;99.90
23089;DHT22;11713;48.506;8.966;2023-02-28T06:58:56;-0.70;99.90
23089;DHT22;11713;48.506;8.966;2023-02-28T07:01:22;-0.80;99.90
23089;DHT22;11713;48.506;8.966;2023-02-28T07:03:50;-0.80;99.90
23089;DHT22;11713;48.506;8.966;2023-02-28T07:06:22;-0.70;99.90
23089;DHT22;11713;48.506;8.966;2023-02-28T07:08:48;-0.70;99.90
23089;DHT22;11713;48.506;8.966;2023-02-28T07:11:14;-0.70;99.90
23089;DHT22;11713;48.506;8.966;2023-02-28T07:13:41;-0.60;99.90
23089;DHT22;11713;48.506;8.966;2023-02-28T07:16:10;-0.60;99.90
23089;DHT22;11713;48.506;8.966;2023-02-28T07:18:37;-0.60;99.90
23089;DHT22;11713;48.506;8.966;2023-02-28T07:21:04;-0.60;99.90
23089;DHT22;11713;48.506;8.966;2023-02-28T07:23:31;-0.60;99.90
23089;DHT22;11713;48.506;8.966;2023-02-28T07:25:57;-0.50;99.90
23089;DHT22;11713;48.506;8.966;2023-02-28T07:28:23;-0.50;99.90
23089;DHT22;11713;48.506;8.966;2023-02-28T07:30:49;-0.50;99.90
23089;DHT22;11713;48.506;8.966;2023-02-28T07:33:15;-0.50;99.90
23089;DHT22;11713;48.506;8.966;2023-02-28T07:35:41;-0.50;99.90
23089;DHT22;11713;48.506;8.966;2023-02-28T07:38:07;-0.40;99.90
23089;DHT22;11713;48.506;8.966;2023-02-28T07:40:34;-0.40;99.90
23089;DHT22;11713;48.506;8.966;2023-02-28T07:43:00;-0.40;99.90
23089;DHT22;11713;48.506;8.966;2023-02-28T07:45:27;-0.30;99.90
23089;DHT22;11713;48.506;8.966;2023-02-28T07:47:54;-0.30;99.90
23089;DHT22;11713;48.506;8.966;2023-02-28T07:50:21;-0.30;99.90
23089;DHT22;11713;48.506;8.966;2023-02-28T07:52:46;-0.20;99.90
23089;DHT22;11713;48.506;8.966;2023-02-28T07:55:12;-0.20;99.90
23089;DHT22;11713;48.506;8.966;2023-02-28T07:57:40;-0.20;99.90
23089;DHT22;11713;48.506;8.966;2023-02-28T08:00:09;-0.20;99.90
23089;DHT22;11713;48.506;8.966;2023-02-28T08:02:39;-0.20;99.90
23089;DHT22;11713;48.506;8.966;2023-02-28T08:05:06;-0.20;99.90
23089;DHT22;11713;48.506;8.966;2023-02-28T08:07:32;-0.20;99.90
23089;DHT22;11713;48.506;8.966;2023-02-28T08:09:59;-0.20;99.90
23089;DHT22;11713;48.506;8.966;2023-02-28T08:12:26;-0.10;99.90
23089;DHT22;11713;48.506;8.966;2023-02-28T08:14:52;-0.10;99.90
23089;DHT22;11713;48.506;8.966;2023-02-28T08:17:18;0.00;99.90
23089;DHT22;11713;48.506;8.966;2023-02-28T08:19:47;0.00;99.90
23089;DHT22;11713;48.506;8.966;2023-02-28T08:22:13;0.10;99.90
23089;DHT22;11713;48.506;8.966;2023-02-28T08:24:41;0.10;99.90
23089;DHT22;11713;48.506;8.966;2023-02-28T08:27:08;0.10;99.90
23089;DHT22;11713;48.506;8.966;2023-02-28T08:29:37;0.10;99.90
23089;DHT22;11713;48.506;8.966;2023-02-28T08:32:04;0.20;99.90
23089;DHT22;11713;48.506;8.966;2023-02-28T08:34:31;0.20;99.90
23089;DHT22;11713;48.506;8.966;2023-02-28T08:36:57;0.30;99.90
23089;DHT22;11713;48.506;8.966;2023-02-28T08:39:22;0.20;99.90
23089;DHT22;11713;48.506;8.966;2023-02-28T08:41:48;0.30;99.90
23089;DHT22;11713;48.506;8.966;2023-02-28T08:44:14;0.30;99.90
23089;DHT22;11713;48.506;8.966;2023-02-28T08:46:40;0.30;99.90
23089;DHT22;11713;48.506;8.966;2023-02-28T08:49:05;0.40;99.90
23089;DHT22;11713;48.506;8.966;2023-02-28T08:51:32;0.40;99.90
23089;DHT22;11713;48.506;8.966;2023-02-28T08:53:59;0.50;99.90
23089;DHT22;11713;48.506;8.966;2023-02-28T08:56:26;0.50;99.90
23089;DHT22;11713;48.506;8.966;2023-02-28T08:58:54;0.40;99.90
23089;DHT22;11713;48.506;8.966;2023-02-28T09:01:24;0.40;99.90
23089;DHT22;11713;48.506;8.966;2023-02-28T09:03:51;0.50;99.90
23089;DHT22;11713;48.506;8.966;2023-02-28T09:06:20;0.50;99.90
23089;DHT22;11713;48.506;8.966;2023-02-28T09:08:46;0.60;99.90
23089;DHT22;11713;48.506;8.966;2023-02-28T09:11:12;0.60;99.90
23089;DHT22;11713;48.506;8.966;2023-02-28T09:13:39;0.70;99.90
23089;DHT22;11713;48.506;8.966;2023-02-28T09:16:07;0.70;99.90
23089;DHT22;11713;48.506;8.966;2023-02-28T09:18:35;0.70;99.90
23089;DHT22;11713;48.506;8.966;2023-02-28T09:21:05;0.80;99.90
23089;DHT22;11713;48.506;8.966;2023-02-28T09:23:31;0.80;99.90
23089;DHT22;11713;48.506;8.966;2023-02-28T09:25:57;0.90;99.90
23089;DHT22;11713;48.506;8.966;2023-02-28T09:28:24;0.90;99.90
23089;DHT22;11713;48.506;8.966;2023-02-28T09:30:53;1.00;99.90
23089;DHT22;11713;48.506;8.966;2023-02-28T09:33:22;1.00;99.90
23089;DHT22;11713;48.506;8.966;2023-02-28T09:35:49;1.00;99.90
23089;DHT22;11713;48.506;8.966;2023-02-28T09:38:16;1.10;99.90
23089;DHT22;11713;48.506;8.966;2023-02-28T09:40:55;1.10;99.90
23089;DHT22;11713;48.506;8.966;2023-02-28T09:43:25;1.20;99.90
23089;DHT22;11713;48.506;8.966;2023-02-28T09:48:36;1.30;99.90
23089;DHT22;11713;48.506;8.966;2023-02-28T09:51:23;1.40;99.90
23089;DHT22;11713;48.506;8.966;2023-02-28T09:53:53;1.40;99.90
23089;DHT22;11713;48.506;8.966;2023-02-28T09:56:24;1.40;99.90
23089;DHT22;11713;48.506;8.966;2023-02-28T09:58:59;1.40;99.90
23089;DHT22;11713;48.506;8.966;2023-02-28T10:07:19;1.50;99.90
23089;DHT22;11713;48.506;8.966;2023-02-28T10:09:52;1.60;99.90
23089;DHT22;11713;48.506;8.966;2023-02-28T10:12:20;1.60;99.90
23089;DHT22;11713;48.506;8.966;2023-02-28T10:14:49;1.60;99.90
23089;DHT22;11713;48.506;8.966;2023-02-28T10:17:21;1.60;99.90
23089;DHT22;11713;48.506;8.966;2023-02-28T10:22:21;1.70;99.90
23089;DHT22;11713;48.506;8.966;2023-02-28T10:24:53;1.80;99.90
23089;DHT22;11713;48.506;8.966;2023-02-28T10:27:24;1.90;99.90
23089;DHT22;11713;48.506;8.966;2023-02-28T10:29:55;1.90;99.90
23089;DHT22;11713;48.506;8.966;2023-02-28T10:32:26;2.00;99.90
23089;DHT22;11713;48.506;8.966;2023-02-28T10:37:42;2.10;99.90
23089;DHT22;11713;48.506;8.966;2023-02-28T10:40:35;2.20;99.90
23089;DHT22;11713;48.506;8.966;2023-02-28T10:45:37;2.30;99.90
23089;DHT22;11713;48.506;8.966;2023-02-28T10:58:26;2.50;99.90
23089;DHT22;11713;48.506;8.966;2023-02-28T11:00:53;2.60;99.90
23089;DHT22;11713;48.506;8.966;2023-02-28T11:03:33;2.60;99.90
23089;DHT22;11713;48.506;8.966;2023-02-28T11:08:34;2.60;99.90
23089;DHT22;11713;48.506;8.966;2023-02-28T11:11:05;2.70;99.90
23089;DHT22;11713;48.506;8.966;2023-02-28T11:13:36;2.70;99.90
23089;DHT22;11713;48.506;8.966;2023-02-28T11:16:09;2.80;99.90
23089;DHT22;11713;48.506;8.966;2023-02-28T11:21:29;2.80;99.90
23089;DHT22;11713;48.506;8.966;2023-02-28T11:26:43;2.90;99.90
23089;DHT22;11713;48.506;8.966;2023-02-28T11:29:22;3.10;99.90
23089;DHT22;11713;48.506;8.966;2023-02-28T11:34:36;3.20;99.90
23089;DHT22;11713;48.506;8.966;2023-02-28T11:37:04;3.30;99.90
23089;DHT22;11713;48.506;8.966;2023-02-28T11:39:33;3.40;99.90
23089;DHT22;11713;48.506;8.966;2023-02-28T11:45:21;3.50;99.90
23089;DHT22;11713;48.506;8.966;2023-02-28T11:50:36;3.90;99.90
23089;DHT22;11713;48.506;8.966;2023-02-28T12:19:55;5.50;99.90
23089;DHT22;11713;48.506;8.966;2023-02-28T12:27:43;5.40;99.90
23089;DHT22;11713;48.506;8.966;2023-02-28T12:30:27;5.50;99.90
23089;DHT22;11713;48.506;8.966;2023-02-28T12:33:09;5.60;99.90
23089;DHT22;11713;48.506;8.966;2023-02-28T12:35:50;5.60;99.90
23089;DHT22;11713;48.506;8.966;2023-02-28T12:38:24;5.60;99.90
23089;DHT22;11713;48.506;8.966;2023-02-28T12:41:02;5.40;99.90
23089;DHT22;11713;48.506;8.966;2023-02-28T12:43:43;5.40;99.90
23089;DHT22;11713;48.506;8.966;2023-02-28T12:49:08;4.90;99.90
23089;DHT22;11713;48.506;8.966;2023-02-28T12:51:33;4.90;99.90
23089;DHT22;11713;48.506;8.966;2023-02-28T13:00:16;4.80;99.90
23089;DHT22;11713;48.506;8.966;2023-02-28T13:05:49;5.30;99.90
23089;DHT22;11713;48.506;8.966;2023-02-28T13:14:03;6.10;99.90
23089;DHT22;11713;48.506;8.966;2023-02-28T13:16:55;6.00;99.90
23089;DHT22;11713;48.506;8.966;2023-02-28T13:19:24;6.00;99.90
23089;DHT22;11713;48.506;8.966;2023-02-28T13:21:51;6.20;99.90
23089;DHT22;11713;48.506;8.966;2023-02-28T13:24:41;6.40;99.90
23089;DHT22;11713;48.506;8.966;2023-02-28T13:29:37;6.60;99.90
23089;DHT22;11713;48.506;8.966;2023-02-28T13:34:38;6.80;99.90
23089;DHT22;11713;48.506;8.966;2023-02-28T13:40:00;6.50;99.90
23089;DHT22;11713;48.506;8.966;2023-02-28T13:42:35;6.10;99.90
23089;DHT22;11713;48.506;8.966;2023-02-28T13:47:40;5.80;99.90
23089;DHT22;11713;48.506;8.966;2023-02-28T13:56:04;6.40;99.90
23089;DHT22;11713;48.506;8.966;2023-02-28T14:06:32;7.20;99.90
23089;DHT22;11713;48.506;8.966;2023-02-28T14:09:38;7.30;99.90
23089;DHT22;11713;48.506;8.966;2023-02-28T14:18:02;7.00;99.90
23089;DHT22;11713;48.506;8.966;2023-02-28T14:20:32;6.80;99.90
23089;DHT22;11713;48.506;8.966;2023-02-28T14:28:56;6.70;99.90
23089;DHT22;11713;48.506;8.966;2023-02-28T14:31:37;6.80;99.90
23089;DHT22;11713;48.506;8.966;2023-02-28T14:36:53;7.10;99.90
23089;DHT22;11713;48.506;8.966;2023-02-28T14:39:26;7.30;99.90
23089;DHT22;11713;48.506;8.966;2023-02-28T15:00:33;7.50;99.90
23089;DHT22;11713;48.506;8.966;2023-02-28T15:03:01;7.40;99.90
23089;DHT22;11713;48.506;8.966;2023-02-28T15:05:37;7.50;99.90
23089;DHT22;11713;48.506;8.966;2023-02-28T15:08:12;7.60;99.90
23089;DHT22;11713;48.506;8.966;2023-02-28T15:10:59;7.50;99.90
23089;DHT22;11713;48.506;8.966;2023-02-28T15:13:46;7.50;99.90
23089;DHT22;11713;48.506;8.966;2023-02-28T15:18:54;7.30;99.90
23089;DHT22;11713;48.506;8.966;2023-02-28T15:21:25;7.40;99.90
23089;DHT22;11713;48.506;8.966;2023-02-28T15:24:17;7.10;99.90
23089;DHT22;11713;48.506;8.966;2023-02-28T15:26:57;7.20;99.90
23089;DHT22;11713;48.506;8.966;2023-02-28T15:29:25;7.40;99.90
23089;DHT22;11713;48.506;8.966;2023-02-28T15:32:00;7.20;99.90
23089;DHT22;11713;48.506;8.966;2023-02-28T15:34:45;7.30;99.90
23089;DHT22;11713;48.506;8.966;2023-02-28T15:37:58;7.20;99.90
23089;DHT22;11713;48.506;8.966;2023-02-28T15:43:07;7.20;99.90
23089;DHT22;11713;48.506;8.966;2023-02-28T15:45:39;7.30;99.90
23089;DHT22;11713;48.506;8.966;2023-02-28T15:50:44;7.30;99.90
23089;DHT22;11713;48.506;8.966;2023-02-28T15:53:18;7.40;99.90
23089;DHT22;11713;48.506;8.966;2023-02-28T15:55:45;7.30;99.90
23089;DHT22;11713;48.506;8.966;2023-02-28T15:58:12;7.30;99.90
23089;DHT22;11713;48.506;8.966;2023-02-28T16:04:27;7.30;99.90
23089;DHT22;11713;48.506;8.966;2023-02-28T16:07:32;7.30;99.90
23089;DHT22;11713;48.506;8.966;2023-02-28T16:11:00;7.20;99.90
23089;DHT22;11713;48.506;8.966;2023-02-28T16:13:26;7.10;99.90
23089;DHT22;11713;48.506;8.966;2023-02-28T16:15:52;7.00;99.90
23089;DHT22;11713;48.506;8.966;2023-02-28T16:18:23;6.90;99.90
23089;DHT22;11713;48.506;8.966;2023-02-28T16:20:57;6.70;99.90
23089;DHT22;11713;48.506;8.966;2023-02-28T16:27:48;6.50;99.90
23089;DHT22;11713;48.506;8.966;2023-02-28T16:31:40;6.20;99.90
23089;DHT22;11713;48.506;8.966;2023-02-28T16:34:07;5.90;99.90
23089;DHT22;11713;48.506;8.966;2023-02-28T16:36:33;5.70;99.90
23089;DHT22;11713;48.506;8.966;2023-02-28T16:38:59;5.60;99.90
23089;DHT22;11713;48.506;8.966;2023-02-28T16:41:28;5.50;99.90
23089;DHT22;11713;48.506;8.966;2023-02-28T16:43:56;5.30;99.90
23089;DHT22;11713;48.506;8.966;2023-02-28T16:46:30;5.20;99.90
23089;DHT22;11713;48.506;8.966;2023-02-28T16:48:57;5.10;99.90
23089;DHT22;11713;48.506;8.966;2023-02-28T16:51:23;5.10;99.90
23089;DHT22;11713;48.506;8.966;2023-02-28T16:53:49;4.90;99.90
23089;DHT22;11713;48.506;8.966;2023-02-28T16:56:21;4.90;99.90
23089;DHT22;11713;48.506;8.966;2023-02-28T16:58:48;4.90;99.90
23089;DHT22;11713;48.506;8.966;2023-02-28T17:01:15;4.80;99.90
23089;DHT22;11713;48.506;8.966;2023-02-28T17:03:41;4.70;99.90
23089;DHT22;11713;48.506;8.966;2023-02-28T17:06:27;4.70;99.90
23089;DHT22;11713;48.506;8.966;2023-02-28T17:08:54;4.60;99.90
23089;DHT22;11713;48.506;8.966;2023-02-28T17:11:21;4.50;99.90
23089;DHT22;11713;48.506;8.966;2023-02-28T17:13:47;4.50;99.90
23089;DHT22;11713;48.506;8.966;2023-02-28T17:18:45;4.30;99.90
23089;DHT22;11713;48.506;8.966;2023-02-28T17:21:16;4.20;99.90
23089;DHT22;11713;48.506;8.966;2023-02-28T17:23:43;4.20;99.90
23089;DHT22;11713;48.506;8.966;2023-02-28T17:26:17;4.10;99.90
23089;DHT22;11713;48.506;8.966;2023-02-28T17:28:46;4.10;99.90
23089;DHT22;11713;48.506;8.966;2023-02-28T17:31:13;4.00;99.90
23089;DHT22;11713;48.506;8.966;2023-02-28T17:33:39;3.90;99.90
23089;DHT22;11713;48.506;8.966;2023-02-28T17:36:05;3.90;99.90
23089;DHT22;11713;48.506;8.966;2023-02-28T17:38:32;3.80;99.90
23089;DHT22;11713;48.506;8.966;2023-02-28T17:40:57;3.80;99.90
23089;DHT22;11713;48.506;8.966;2023-02-28T17:43:25;3.70;99.90
23089;DHT22;11713;48.506;8.966;2023-02-28T17:45:51;3.60;99.90
23089;DHT22;11713;48.506;8.966;2023-02-28T17:48:18;3.60;99.90
23089;DHT22;11713;48.506;8.966;2023-02-28T17:50:44;3.50;99.90
23089;DHT22;11713;48.506;8.966;2023-02-28T17:53:10;3.50;99.90
23089;DHT22;11713;48.506;8.966;2023-02-28T17:55:40;3.40;99.90
23089;DHT22;11713;48.506;8.966;2023-02-28T17:58:10;3.40;99.90
23089;DHT22;11713;48.506;8.966;2023-02-28T18:00:38;3.30;99.90
23089;DHT22;11713;48.506;8.966;2023-02-28T18:03:03;3.30;99.90
23089;DHT22;11713;48.506;8.966;2023-02-28T18:05:30;3.20;99.90
23089;DHT22;11713;48.506;8.966;2023-02-28T18:08:02;3.20;99.90
23089;DHT22;11713;48.506;8.966;2023-02-28T18:10:31;3.10;99.90
23089;DHT22;11713;48.506;8.966;2023-02-28T18:13:00;3.10;99.90
23089;DHT22;11713;48.506;8.966;2023-02-28T18:15:26;3.00;99.90
23089;DHT22;11713;48.506;8.966;2023-02-28T18:17:53;3.00;99.90
23089;DHT22;11713;48.506;8.966;2023-02-28T18:20:19;2.90;99.90
23089;DHT22;11713;48.506;8.966;2023-02-28T18:22:50;2.90;99.90
23089;DHT22;11713;48.506;8.966;2023-02-28T18:25:39;2.80;99.90
23089;DHT22;11713;48.506;8.966;2023-02-28T18:28:06;2.70;99.90
23089;DHT22;11713;48.506;8.966;2023-02-28T18:30:38;2.70;99.90
23089;DHT22;11713;48.506;8.966;2023-02-28T18:33:06;2.60;99.90
23089;DHT22;11713;48.506;8.966;2023-02-28T18:35:32;2.50;99.90
23089;DHT22;11713;48.506;8.966;2023-02-28T18:38:12;2.40;99.90
23089;DHT22;11713;48.506;8.966;2023-02-28T18:40:56;2.40;99.90
23089;DHT22;11713;48.506;8.966;2023-02-28T18:43:23;2.30;99.90
23089;DHT22;11713;48.506;8.966;2023-02-28T18:45:52;2.20;99.90
23089;DHT22;11713;48.506;8.966;2023-02-28T18:48:19;2.20;99.90
23089;DHT22;11713;48.506;8.966;2023-02-28T18:50:51;2.10;99.90
23089;DHT22;11713;48.506;8.966;2023-02-28T18:53:23;2.10;99.90
23089;DHT22;11713;48.506;8.966;2023-02-28T18:56:00;2.00;99.90
23089;DHT22;11713;48.506;8.966;2023-02-28T18:58:28;2.00;99.90
23089;DHT22;11713;48.506;8.966;2023-02-28T19:01:02;2.00;99.90
23089;DHT22;11713;48.506;8.966;2023-02-28T19:03:28;2.00;99.90
23089;DHT22;11713;48.506;8.966;2023-02-28T19:05:55;2.00;99.90
23089;DHT22;11713;48.506;8.966;2023-02-28T19:08:22;2.00;99.90
23089;DHT22;11713;48.506;8.966;2023-02-28T19:10:48;1.90;99.90
23089;DHT22;11713;48.506;8.966;2023-02-28T19:13:14;2.00;99.90
23089;DHT22;11713;48.506;8.966;2023-02-28T19:15:40;1.90;99.90
23089;DHT22;11713;48.506;8.966;2023-02-28T19:18:06;1.90;99.90
23089;DHT22;11713;48.506;8.966;2023-02-28T19:20:31;1.90;99.90
23089;DHT22;11713;48.506;8.966;2023-02-28T19:22:57;1.90;99.90
23089;DHT22;11713;48.506;8.966;2023-02-28T19:25:23;1.90;99.90
23089;DHT22;11713;48.506;8.966;2023-02-28T19:27:53;1.80;99.90